createdAt,value
2022-12-03T00:01:48.381Z,72.53
2022-12-03T00:04:15.264Z,73.99
2022-12-03T00:06:41.735Z,72.94
2022-12-03T00:09:09.008Z,74.02
2022-12-03T00:11:35.599Z,73.92
2022-12-03T00:14:02.057Z,73.84
2022-12-03T00:16:29.177Z,74.54
2022-12-03T00:18:56.023Z,72.29
2022-12-03T00:21:24.580Z,71.83
2022-12-03T00:23:51.701Z,72.23
2022-12-03T00:26:18.151Z,71.54
2022-12-03T00:28:45.535Z,72.42
2022-12-03T00:31:12.072Z,72.50
2022-12-03T00:33:38.544Z,72.70
2022-12-03T00:36:05.411Z,73.02
2022-12-03T00:38:32.100Z,71.99
2022-12-03T00:41:01.860Z,72.21
2022-12-03T00:43:28.300Z,72.24
2022-12-03T00:45:54.802Z,73.26
2022-12-03T00:48:21.237Z,71.62
2022-12-03T00:50:47.689Z,72.87
2022-12-03T00:53:14.124Z,72.46
2022-12-03T00:55:40.563Z,72.83
2022-12-03T00:58:08.601Z,72.44
2022-12-03T01:00:36.044Z,72.28
2022-12-03T01:03:02.890Z,72.23
2022-12-03T01:05:29.385Z,71.93
2022-12-03T01:07:55.890Z,73.70
2022-12-03T01:10:22.393Z,72.47
2022-12-03T01:12:48.858Z,72.04
2022-12-03T01:15:15.286Z,73.39
2022-12-03T01:17:41.820Z,73.28
2022-12-03T01:20:09.592Z,73.44
2022-12-03T01:22:36.164Z,74.14
2022-12-03T01:25:02.687Z,73.33
2022-12-03T01:27:29.140Z,72.96
2022-12-03T01:29:55.575Z,73.54
2022-12-03T01:32:22.215Z,72.64
2022-12-03T01:34:49.731Z,71.84
2022-12-03T01:37:17.227Z,72.31
2022-12-03T01:39:43.751Z,71.17
2022-12-03T01:42:19.674Z,72.41
2022-12-03T01:44:46.621Z,73.03
2022-12-03T01:47:16.891Z,73.51
2022-12-03T01:49:47.213Z,73.97
2022-12-03T01:52:16.471Z,72.52
2022-12-03T01:54:47.123Z,72.68
2022-12-03T01:57:19.973Z,72.97
2022-12-03T01:59:46.715Z,73.16
2022-12-03T02:02:18.042Z,72.45
2022-12-03T02:04:44.607Z,71.52
2022-12-03T02:07:37.431Z,70.79
2022-12-03T02:10:05.054Z,70.54
2022-12-03T02:12:51.733Z,72.24
2022-12-03T02:15:18.252Z,72.13
2022-12-03T02:17:44.757Z,70.62
2022-12-03T02:20:12.906Z,71.02
2022-12-03T02:23:00.577Z,69.88
2022-12-03T02:25:32.870Z,72.32
2022-12-03T02:28:00.224Z,71.97
2022-12-03T02:30:28.134Z,72.44
2022-12-03T02:32:56.104Z,71.03
2022-12-03T02:35:25.599Z,71.81
2022-12-03T02:37:55.470Z,70.17
2022-12-03T02:40:25.063Z,71.22
2022-12-03T02:42:55.295Z,69.94
2022-12-03T02:45:24.831Z,68.93
2022-12-03T02:47:57.000Z,70.75
2022-12-03T02:50:28.068Z,70.97
2022-12-03T02:52:56.100Z,69.97
2022-12-03T02:55:22.951Z,69.92
2022-12-03T02:57:50.376Z,69.89
2022-12-03T03:00:18.248Z,68.34
2022-12-03T03:02:46.269Z,71.59
2022-12-03T03:05:13.295Z,70.22
2022-12-03T03:07:40.228Z,69.33
2022-12-03T03:10:07.812Z,68.80
2022-12-03T03:12:39.071Z,68.52
2022-12-03T03:15:07.270Z,69.41
2022-12-03T03:17:35.313Z,69.80
2022-12-03T03:20:02.863Z,72.61
2022-12-03T03:22:37.631Z,71.64
2022-12-03T03:25:05.148Z,71.65
2022-12-03T03:27:32.136Z,70.90
2022-12-03T03:29:59.165Z,72.19
2022-12-03T03:32:27.179Z,70.32
2022-12-03T03:34:54.145Z,69.33
2022-12-03T03:37:21.072Z,70.34
2022-12-03T03:39:47.848Z,69.92
2022-12-03T03:42:14.431Z,70.04
2022-12-03T03:44:40.983Z,69.11
2022-12-03T03:47:07.701Z,69.90
2022-12-03T03:49:34.235Z,69.82
2022-12-03T03:52:00.732Z,69.13
2022-12-03T03:54:27.286Z,71.25
2022-12-03T03:56:53.769Z,70.23
2022-12-03T03:59:20.183Z,70.21
2022-12-03T04:01:46.797Z,71.93
2022-12-03T04:04:19.979Z,72.24
2022-12-03T04:06:47.273Z,71.24
2022-12-03T04:09:13.835Z,69.76
2022-12-03T04:11:58.976Z,71.46
2022-12-03T04:14:25.415Z,70.39
2022-12-03T04:16:51.865Z,70.42
2022-12-03T04:19:18.454Z,68.86
2022-12-03T04:22:03.649Z,68.35
2022-12-03T04:24:45.150Z,69.32
2022-12-03T04:27:30.412Z,70.03
2022-12-03T04:29:56.870Z,68.88
2022-12-03T04:32:42.002Z,69.46
2022-12-03T04:35:28.125Z,69.10
2022-12-03T04:37:54.651Z,68.23
2022-12-03T04:40:39.709Z,69.04
2022-12-03T04:43:06.166Z,69.80
2022-12-03T04:45:32.677Z,69.17
2022-12-03T04:47:59.180Z,67.97
2022-12-03T04:50:25.616Z,67.34
2022-12-03T04:52:52.055Z,67.36
2022-12-03T04:55:18.510Z,67.34
2022-12-03T04:57:44.926Z,67.54
2022-12-03T05:00:12.066Z,67.92
2022-12-03T05:02:38.539Z,69.59
2022-12-03T05:05:05.388Z,67.52
2022-12-03T05:07:31.870Z,67.72
2022-12-03T05:09:58.361Z,67.98
2022-12-03T05:12:24.802Z,69.01
2022-12-03T05:14:51.552Z,67.83
2022-12-03T05:17:18.366Z,67.44
2022-12-03T05:20:03.514Z,67.90
2022-12-03T05:22:29.948Z,67.91
2022-12-03T05:24:56.762Z,67.56
2022-12-03T05:27:24.258Z,68.34
2022-12-03T05:29:51.365Z,68.37
2022-12-03T05:32:17.857Z,69.26
2022-12-03T05:34:44.320Z,70.75
2022-12-03T05:37:11.075Z,69.37
2022-12-03T05:39:37.731Z,69.66
2022-12-03T05:42:22.814Z,70.07
2022-12-03T05:44:49.320Z,67.76
2022-12-03T05:47:15.761Z,68.98
2022-12-03T05:49:42.316Z,68.81
2022-12-03T05:52:08.760Z,67.41
2022-12-03T05:54:35.234Z,67.36
2022-12-03T05:57:01.683Z,67.37
2022-12-03T05:59:28.121Z,67.74
2022-12-03T06:01:54.571Z,68.46
2022-12-03T06:04:21.040Z,68.14
2022-12-03T06:06:47.480Z,66.68
2022-12-03T06:09:13.940Z,66.50
2022-12-03T06:11:41.281Z,68.50
2022-12-03T06:14:07.979Z,68.67
2022-12-03T06:16:34.480Z,67.95
2022-12-03T06:19:01.048Z,67.77
2022-12-03T06:21:27.505Z,68.84
2022-12-03T06:23:53.944Z,68.03
2022-12-03T06:26:20.375Z,67.97
2022-12-03T06:28:49.105Z,67.25
2022-12-03T06:31:15.857Z,68.88
2022-12-03T06:33:42.455Z,68.94
2022-12-03T06:36:09.054Z,68.96
2022-12-03T06:38:35.504Z,68.24
2022-12-03T06:41:01.944Z,66.71
2022-12-03T06:43:28.376Z,66.81
2022-12-03T06:45:54.828Z,67.06
2022-12-03T06:48:21.279Z,68.23
2022-12-03T06:50:47.777Z,69.73
2022-12-03T06:53:14.201Z,69.49
2022-12-03T06:55:40.668Z,70.45
2022-12-03T06:58:07.147Z,70.07
2022-12-03T07:00:33.598Z,71.06
2022-12-03T07:03:00.107Z,73.49
2022-12-03T07:05:26.738Z,72.24
2022-12-03T07:07:55.328Z,73.29
2022-12-03T07:10:22.334Z,73.32
2022-12-03T07:12:48.758Z,74.38
2022-12-03T07:15:15.238Z,74.12
2022-12-03T07:17:41.684Z,73.72
2022-12-03T07:20:09.043Z,72.25
2022-12-03T07:22:35.485Z,73.30
2022-12-03T07:25:02.009Z,73.15
2022-12-03T07:27:28.430Z,73.93
2022-12-03T07:29:54.880Z,73.62
2022-12-03T07:32:21.326Z,73.54
2022-12-03T07:34:47.779Z,73.72
2022-12-03T07:37:17.507Z,73.68
2022-12-03T07:39:46.516Z,74.38
2022-12-03T07:42:13.010Z,76.09
2022-12-03T07:44:39.469Z,76.31
2022-12-03T07:47:06.050Z,76.30
2022-12-03T07:49:32.883Z,76.63
2022-12-03T07:51:59.326Z,76.68
2022-12-03T07:54:26.260Z,75.44
2022-12-03T07:56:57.955Z,74.33
2022-12-03T07:59:28.690Z,75.84
2022-12-03T08:01:55.183Z,75.13
2022-12-03T08:04:21.748Z,73.76
2022-12-03T08:06:48.870Z,74.25
2022-12-03T08:09:16.455Z,74.64
2022-12-03T08:11:45.492Z,75.66
2022-12-03T08:14:17.212Z,74.19
2022-12-03T08:16:45.262Z,74.23
2022-12-03T08:19:13.831Z,76.26
2022-12-03T08:21:40.771Z,75.71
2022-12-03T08:24:14.896Z,75.59
2022-12-03T08:26:44.045Z,75.72
2022-12-03T08:29:12.467Z,75.51
2022-12-03T08:31:39.756Z,76.42
2022-12-03T08:34:19.446Z,76.68
2022-12-03T08:36:47.216Z,77.25
2022-12-03T08:39:33.851Z,77.06
2022-12-03T08:42:32.143Z,77.58
2022-12-03T08:45:29.712Z,77.31
2022-12-03T08:48:00.698Z,75.49
2022-12-03T08:50:28.252Z,75.30
2022-12-03T08:52:58.326Z,74.77
2022-12-03T08:55:38.616Z,74.48
2022-12-03T08:58:28.116Z,75.20
2022-12-03T09:01:11.259Z,75.80
2022-12-03T09:03:48.376Z,75.17
2022-12-03T09:06:14.872Z,76.03
2022-12-03T09:08:41.326Z,76.00
2022-12-03T09:11:07.818Z,76.71
2022-12-03T09:13:34.342Z,75.87
2022-12-03T09:16:00.813Z,76.33
2022-12-03T09:18:27.255Z,76.00
2022-12-03T09:20:53.698Z,75.45
2022-12-03T09:23:20.132Z,76.39
2022-12-03T09:25:46.597Z,76.33
2022-12-03T09:28:13.075Z,75.34
2022-12-03T09:30:39.560Z,75.06
2022-12-03T09:33:06.013Z,75.03
2022-12-03T09:35:32.561Z,76.43
2022-12-03T09:37:59.041Z,76.10
2022-12-03T09:40:25.545Z,76.10
2022-12-03T09:42:52.094Z,75.53
2022-12-03T09:45:18.608Z,76.83
2022-12-03T09:47:47.256Z,76.04
2022-12-03T09:50:15.808Z,75.34
2022-12-03T09:52:42.484Z,75.24
2022-12-03T09:55:17.786Z,73.83
2022-12-03T09:57:44.443Z,74.78
2022-12-03T10:00:19.245Z,75.92
2022-12-03T10:02:46.867Z,75.35
2022-12-03T10:05:14.626Z,77.27
2022-12-03T10:07:42.041Z,75.97
2022-12-03T10:10:18.471Z,75.70
2022-12-03T10:12:45.214Z,76.24
2022-12-03T10:15:13.403Z,76.40
2022-12-03T10:17:39.929Z,75.45
2022-12-03T10:20:07.726Z,76.86
2022-12-03T10:22:37.327Z,77.52
2022-12-03T10:25:07.767Z,75.46
2022-12-03T10:27:34.300Z,75.24
2022-12-03T10:30:03.887Z,75.84
2022-12-03T10:32:45.555Z,75.90
2022-12-03T10:35:17.980Z,75.12
2022-12-03T10:38:05.263Z,75.29
2022-12-03T10:40:37.328Z,74.43
2022-12-03T10:43:23.646Z,73.94
2022-12-03T10:46:00.474Z,75.95
2022-12-03T10:48:30.126Z,74.61
2022-12-03T10:51:02.268Z,74.02
2022-12-03T10:53:34.017Z,74.86
2022-12-03T10:56:03.048Z,75.52
2022-12-03T10:58:31.466Z,75.69
2022-12-03T11:00:59.107Z,74.63
2022-12-03T11:03:27.914Z,75.21
2022-12-03T11:05:55.465Z,74.78
2022-12-03T11:08:24.548Z,74.58
2022-12-03T11:11:03.080Z,73.54
2022-12-03T11:13:32.742Z,74.42
2022-12-03T11:16:00.652Z,72.96
2022-12-03T11:18:36.325Z,74.46
2022-12-03T11:21:08.833Z,75.71
2022-12-03T11:23:44.402Z,74.82
2022-12-03T11:26:19.785Z,73.52
2022-12-03T11:28:46.507Z,73.38
2022-12-03T11:31:39.262Z,73.37
2022-12-03T11:34:18.019Z,72.58
2022-12-03T11:37:12.417Z,74.13
2022-12-03T11:39:45.215Z,73.89
2022-12-03T11:42:26.933Z,72.94
2022-12-03T11:45:02.591Z,73.01
2022-12-03T11:47:36.591Z,73.54
2022-12-03T11:50:17.763Z,72.53
2022-12-03T11:52:46.799Z,72.33
2022-12-03T11:55:17.992Z,71.65
2022-12-03T11:57:44.522Z,71.53
2022-12-03T12:00:21.460Z,71.25
2022-12-03T12:02:49.091Z,70.45
2022-12-03T12:05:20.898Z,70.85
2022-12-03T12:07:48.214Z,70.90
2022-12-03T12:10:44.891Z,70.88
2022-12-03T12:13:30.133Z,70.23
2022-12-03T12:15:57.784Z,69.67
2022-12-03T12:18:41.507Z,69.90
2022-12-03T12:21:43.119Z,70.41
2022-12-03T12:24:31.484Z,70.38
2022-12-03T12:27:00.526Z,70.18
2022-12-03T12:29:27.500Z,69.28
2022-12-03T12:32:06.117Z,69.75
2022-12-03T12:34:33.029Z,70.57
2022-12-03T12:37:00.331Z,70.35
2022-12-03T12:39:26.925Z,69.62
2022-12-03T12:41:54.461Z,70.55
2022-12-03T12:44:23.557Z,70.28
2022-12-03T12:46:52.618Z,68.53
2022-12-03T12:49:23.479Z,68.47
2022-12-03T12:51:50.622Z,68.33
2022-12-03T12:54:20.396Z,69.07
2022-12-03T12:56:49.943Z,69.68
2022-12-03T12:59:20.906Z,69.49
2022-12-03T13:01:49.228Z,69.33
2022-12-03T13:04:21.815Z,68.97
2022-12-03T13:06:50.478Z,69.21
2022-12-03T13:09:20.543Z,69.32
2022-12-03T13:12:00.222Z,69.78
2022-12-03T13:14:32.139Z,69.30
2022-12-03T13:17:01.325Z,69.68
2022-12-03T13:19:29.672Z,69.48
2022-12-03T13:21:57.672Z,70.25
2022-12-03T13:24:37.254Z,71.51
2022-12-03T13:27:23.067Z,70.79
2022-12-03T13:29:54.719Z,71.00
2022-12-03T13:32:32.404Z,70.00
2022-12-03T13:35:23.482Z,70.34
2022-12-03T13:37:50.060Z,69.28
2022-12-03T13:40:30.805Z,69.81
2022-12-03T13:42:58.428Z,69.85
2022-12-03T13:45:31.033Z,70.35
2022-12-03T13:48:01.906Z,69.95
2022-12-03T13:50:39.846Z,70.44
2022-12-03T13:53:31.833Z,69.63
2022-12-03T13:56:09.231Z,69.15
2022-12-03T13:58:35.662Z,69.15
2022-12-03T14:01:02.168Z,68.73
2022-12-03T14:03:28.620Z,68.06
2022-12-03T14:05:55.064Z,69.04
2022-12-03T14:08:21.571Z,69.23
2022-12-03T14:10:48.046Z,68.59
2022-12-03T14:13:14.454Z,68.53
2022-12-03T14:15:40.907Z,69.15
2022-12-03T14:18:07.334Z,68.92
2022-12-03T14:20:34.994Z,69.01
2022-12-03T14:23:01.426Z,68.81
2022-12-03T14:25:27.923Z,69.51
2022-12-03T14:27:54.424Z,69.73
2022-12-03T14:30:21.226Z,69.63
2022-12-03T14:32:47.687Z,69.80
2022-12-03T14:35:14.225Z,69.30
2022-12-03T14:37:40.640Z,69.18
2022-12-03T14:40:09.074Z,71.59
2022-12-03T14:42:36.496Z,71.75
2022-12-03T14:45:03.692Z,72.09
2022-12-03T14:47:33.418Z,69.90
2022-12-03T14:50:00.594Z,69.64
2022-12-03T14:52:27.223Z,70.30
2022-12-03T14:54:53.724Z,68.83
2022-12-03T14:57:20.241Z,70.98
2022-12-03T14:59:47.284Z,69.75
2022-12-03T15:02:14.118Z,70.17
2022-12-03T15:04:41.218Z,70.64
2022-12-03T15:07:08.017Z,72.22
2022-12-03T15:09:34.651Z,71.38
2022-12-03T15:12:01.404Z,70.52
2022-12-03T15:14:28.001Z,70.51
2022-12-03T15:16:54.663Z,70.33
2022-12-03T15:19:21.355Z,70.61
2022-12-03T15:21:47.832Z,70.33
2022-12-03T15:24:14.333Z,70.38
2022-12-03T15:26:40.770Z,70.39
2022-12-03T15:29:07.254Z,69.81
2022-12-03T15:31:33.890Z,70.83
2022-12-03T15:34:00.375Z,71.72
2022-12-03T15:36:26.851Z,71.35
2022-12-03T15:38:53.354Z,72.80
2022-12-03T15:41:29.022Z,71.25
2022-12-03T15:43:57.565Z,72.04
2022-12-03T15:46:24.317Z,71.68
2022-12-03T15:48:50.824Z,72.65
2022-12-03T15:51:17.532Z,72.54
2022-12-03T15:53:43.963Z,73.01
2022-12-03T15:56:12.084Z,72.62
2022-12-03T15:58:39.668Z,71.46
2022-12-03T16:01:06.598Z,72.72
2022-12-03T16:03:33.163Z,73.90
2022-12-03T16:05:59.711Z,73.34
2022-12-03T16:08:26.939Z,74.04
2022-12-03T16:10:53.441Z,74.94
2022-12-03T16:13:19.907Z,73.83
2022-12-03T16:15:46.380Z,72.91
2022-12-03T16:18:12.843Z,73.82
2022-12-03T16:20:39.340Z,74.69
2022-12-03T16:23:05.819Z,74.00
2022-12-03T16:25:32.308Z,74.29
2022-12-03T16:27:58.801Z,73.77
2022-12-03T16:30:25.300Z,73.06
2022-12-03T16:32:51.846Z,74.09
2022-12-03T16:35:18.442Z,74.90
2022-12-03T16:37:44.923Z,74.21
2022-12-03T16:40:12.143Z,74.24
2022-12-03T16:42:38.670Z,74.49
2022-12-03T16:45:08.422Z,74.78
2022-12-03T16:47:35.989Z,75.48
2022-12-03T16:50:03.811Z,76.23
2022-12-03T16:52:30.292Z,75.96
2022-12-03T16:54:56.727Z,76.42
2022-12-03T16:57:23.190Z,76.65
2022-12-03T16:59:49.618Z,77.54
2022-12-03T17:02:16.243Z,76.01
2022-12-03T17:04:42.710Z,77.29
2022-12-03T17:07:09.176Z,78.81
2022-12-03T17:09:35.591Z,78.32
2022-12-03T17:12:02.044Z,76.93
2022-12-03T17:14:33.032Z,76.09
2022-12-03T17:16:59.844Z,78.15
2022-12-03T17:19:26.288Z,78.73
2022-12-03T17:21:54.093Z,77.40
2022-12-03T17:24:21.442Z,77.03
2022-12-03T17:26:48.051Z,77.40
2022-12-03T17:29:14.542Z,78.41
2022-12-03T17:31:42.493Z,77.55
2022-12-03T17:34:09.587Z,79.49
2022-12-03T17:36:36.077Z,78.37
2022-12-03T17:39:02.583Z,78.71
2022-12-03T17:41:29.043Z,78.15
2022-12-03T17:43:55.485Z,78.17
2022-12-03T17:46:22.048Z,78.08
2022-12-03T17:48:48.500Z,77.54
2022-12-03T17:51:15.034Z,77.46
2022-12-03T17:53:41.471Z,78.03
2022-12-03T17:56:08.007Z,78.68
2022-12-03T17:58:34.762Z,77.37
2022-12-03T18:01:03.114Z,77.17
2022-12-03T18:03:30.156Z,78.43
2022-12-03T18:05:56.754Z,78.10
2022-12-03T18:08:23.396Z,77.07
2022-12-03T18:10:50.241Z,77.97
2022-12-03T18:13:16.779Z,77.14
2022-12-03T18:15:43.345Z,77.95
2022-12-03T18:18:09.910Z,76.61
2022-12-03T18:20:36.515Z,75.62
2022-12-03T18:23:03.152Z,76.02
2022-12-03T18:25:29.762Z,77.80
2022-12-03T18:27:56.925Z,77.14
2022-12-03T18:30:23.492Z,74.61
2022-12-03T18:32:50.700Z,75.06
2022-12-03T18:35:18.036Z,74.53
2022-12-03T18:37:44.683Z,73.52
2022-12-03T18:40:20.113Z,74.42
2022-12-03T18:42:47.047Z,74.58
2022-12-03T18:45:15.210Z,74.04
2022-12-03T18:47:42.243Z,72.91
2022-12-03T18:50:09.583Z,73.56
2022-12-03T18:52:36.299Z,74.74
2022-12-03T18:55:03.520Z,73.90
2022-12-03T18:57:29.972Z,72.92
2022-12-03T18:59:56.556Z,72.55
2022-12-03T19:05:10.028Z,72.51
2022-12-03T19:07:36.963Z,71.19
2022-12-03T19:10:04.568Z,72.57
2022-12-03T19:12:31.246Z,72.39
2022-12-03T19:14:58.773Z,73.26
2022-12-03T19:17:27.109Z,72.19
2022-12-03T19:19:54.278Z,72.02
2022-12-03T19:22:21.313Z,73.73
2022-12-03T19:24:47.767Z,73.37
2022-12-03T19:27:14.330Z,72.72
2022-12-03T19:29:40.832Z,72.07
2022-12-03T19:32:07.544Z,72.14
2022-12-03T19:34:37.072Z,70.97
2022-12-03T19:37:03.590Z,72.04
2022-12-03T19:39:30.052Z,72.02
2022-12-03T19:41:56.553Z,71.76
2022-12-03T19:44:23.105Z,71.10
2022-12-03T19:46:50.124Z,70.74
2022-12-03T19:49:18.613Z,69.91
2022-12-03T19:51:45.143Z,69.38
2022-12-03T19:54:11.660Z,69.24
2022-12-03T19:56:38.659Z,68.19
2022-12-03T19:59:05.479Z,70.20
2022-12-03T20:01:33.585Z,68.00
2022-12-03T20:04:01.944Z,67.29
2022-12-03T20:06:31.403Z,68.14
2022-12-03T20:09:03.974Z,67.34
2022-12-03T20:11:32.178Z,67.69
2022-12-03T20:14:10.513Z,68.86
2022-12-03T20:16:37.367Z,68.46
2022-12-03T20:19:06.731Z,67.91
2022-12-03T20:21:35.513Z,67.06
2022-12-03T20:24:02.718Z,68.17
2022-12-03T20:26:29.208Z,66.02
2022-12-03T20:28:56.877Z,65.81
2022-12-03T20:31:25.875Z,65.45
2022-12-03T20:33:54.982Z,67.18
2022-12-03T20:36:22.786Z,66.86
2022-12-03T20:38:53.771Z,66.59
2022-12-03T20:41:20.795Z,67.65
2022-12-03T20:43:47.916Z,67.44
2022-12-03T20:46:20.301Z,67.51
2022-12-03T20:48:47.292Z,67.86
2022-12-03T20:51:19.097Z,66.77
2022-12-03T20:53:46.061Z,67.16
2022-12-03T20:56:22.181Z,66.00
2022-12-03T20:58:49.728Z,65.97
2022-12-03T21:01:19.336Z,66.15
2022-12-03T21:03:46.570Z,65.76
2022-12-03T21:06:14.118Z,65.25
2022-12-03T21:08:42.472Z,65.35
2022-12-03T21:11:14.905Z,64.88
2022-12-03T21:13:43.511Z,65.08
2022-12-03T21:16:12.762Z,64.48
2022-12-03T21:18:39.531Z,65.04
2022-12-03T21:21:06.137Z,65.74
2022-12-03T21:23:33.733Z,67.66
2022-12-03T21:26:12.321Z,65.62
2022-12-03T21:28:40.849Z,65.93
2022-12-03T21:31:10.072Z,66.27
2022-12-03T21:33:37.316Z,66.26
2022-12-03T21:36:06.618Z,65.60
2022-12-03T21:38:33.944Z,64.63
2022-12-03T21:41:01.348Z,64.43
2022-12-03T21:43:28.211Z,64.46
2022-12-03T21:45:54.763Z,65.49
2022-12-03T21:48:21.845Z,66.78
2022-12-03T21:51:03.608Z,66.38
2022-12-03T21:53:32.132Z,66.60
2022-12-03T21:55:59.035Z,66.99
2022-12-03T21:58:25.619Z,67.61
2022-12-03T22:00:52.170Z,66.89
2022-12-03T22:03:18.616Z,66.81
2022-12-03T22:05:45.118Z,65.72
2022-12-03T22:08:13.735Z,65.10
2022-12-03T22:10:40.433Z,65.89
2022-12-03T22:13:06.900Z,64.99
2022-12-03T22:15:33.535Z,64.23
2022-12-03T22:18:00.073Z,64.51
2022-12-03T22:20:26.875Z,64.30
2022-12-03T22:22:53.366Z,63.78
2022-12-03T22:25:19.823Z,64.15
2022-12-03T22:27:46.259Z,64.53
2022-12-03T22:30:12.828Z,65.42
2022-12-03T22:32:39.319Z,65.41
2022-12-03T22:35:06.219Z,66.32
2022-12-03T22:37:32.889Z,65.71
2022-12-03T22:39:59.446Z,65.85
2022-12-03T22:42:25.904Z,65.49
2022-12-03T22:44:52.351Z,65.58
2022-12-03T22:47:18.809Z,66.09
2022-12-03T22:49:45.257Z,65.29
2022-12-03T22:52:11.722Z,64.45
2022-12-03T22:54:38.156Z,65.05
2022-12-03T22:57:04.656Z,64.34
2022-12-03T22:59:31.144Z,65.55
2022-12-03T23:01:58.131Z,64.23
2022-12-03T23:04:25.128Z,63.60
2022-12-03T23:06:51.607Z,64.04
2022-12-03T23:09:18.311Z,64.14
2022-12-03T23:11:45.460Z,64.75
2022-12-03T23:14:12.888Z,63.82
2022-12-03T23:16:39.592Z,63.67
2022-12-03T23:19:06.427Z,64.85
2022-12-03T23:21:34.903Z,65.71
2022-12-03T23:24:03.696Z,65.99
2022-12-03T23:26:30.516Z,64.52
2022-12-03T23:28:57.074Z,65.18
2022-12-03T23:31:26.567Z,65.44
2022-12-03T23:33:53.620Z,64.83
2022-12-03T23:36:21.256Z,64.20
2022-12-03T23:38:47.833Z,64.68
2022-12-03T23:41:16.327Z,64.95
2022-12-03T23:43:43.160Z,64.32
2022-12-03T23:46:17.913Z,64.79
2022-12-03T23:48:45.576Z,62.93
2022-12-03T23:51:20.797Z,64.91
2022-12-03T23:53:47.672Z,64.57
2022-12-03T23:56:16.971Z,65.13
2022-12-03T23:58:44.334Z,65.35
